Time;durP1;ratioP1;P1;durP2;ratioP2;P2;SDS_P1;SDS_P2;PMS_P1;PMS_P2;Temp;Humidity;BMP_temperature;BMP_pressure;BME280_temperature;BME280_humidity;BME280_pressure;Samples;Min_cycle;Max_cycle;Signal;HPM_P1;HPM_P2
2023/07/21 00:02:23;;;;;;;2.35;2.15;;;22.70;35.60;;;;;;20549;6817;306847;-74
2023/07/21 00:04:48;;;;;;;3.53;2.10;;;22.80;36.00;;;;;;20799;6817;118331;-74
2023/07/21 00:07:14;;;;;;;2.07;1.97;;;22.70;36.00;;;;;;20803;6817;117438;-77
2023/07/21 00:09:39;;;;;;;2.40;2.00;;;22.50;36.20;;;;;;20808;6817;117199;-77
2023/07/21 00:12:05;;;;;;;2.40;2.20;;;22.30;36.40;;;;;;20592;6817;306465;-74
2023/07/21 00:14:31;;;;;;;2.00;1.90;;;22.50;36.20;;;;;;20785;6817;117273;-74
2023/07/21 00:16:58;;;;;;;2.25;2.15;;;22.50;36.20;;;;;;20600;6815;322301;-74
2023/07/21 00:19:25;;;;;;;2.70;2.50;;;22.90;35.50;;;;;;20594;6816;306458;-74
2023/07/21 00:21:51;;;;;;;4.00;2.30;;;22.90;35.40;;;;;;20798;6816;117295;-74
2023/07/21 00:24:17;;;;;;;4.95;2.10;;;22.80;35.50;;;;;;20783;6816;123007;-74
2023/07/21 00:26:41;;;;;;;2.63;2.43;;;22.50;35.70;;;;;;20584;6816;309315;-74
2023/07/21 00:29:07;;;;;;;2.53;2.33;;;22.60;35.00;;;;;;20583;6816;306005;-74
2023/07/21 00:31:32;;;;;;;3.30;2.23;;;22.90;34.50;;;;;;20801;6816;117024;-74
2023/07/21 00:33:58;;;;;;;2.73;2.20;;;22.80;34.80;;;;;;20591;6816;277037;-74
2023/07/21 00:36:23;;;;;;;2.40;2.20;;;22.80;34.80;;;;;;20566;6816;335849;-74
2023/07/21 00:38:49;;;;;;;2.33;2.10;;;23.00;34.90;;;;;;20800;6816;117532;-75
2023/07/21 00:41:15;;;;;;;4.30;2.20;;;22.80;35.10;;;;;;20798;6816;120241;-74
2023/07/21 00:43:41;;;;;;;2.70;2.50;;;22.60;35.80;;;;;;20588;6816;276589;-74
2023/07/21 00:46:07;;;;;;;2.37;2.17;;;22.80;36.00;;;;;;20587;6816;336581;-74
2023/07/21 00:48:33;;;;;;;4.20;2.10;;;22.80;35.50;;;;;;20773;6816;124145;-74
2023/07/21 00:50:58;;;;;;;2.47;2.28;;;22.70;35.60;;;;;;20589;6816;328120;-74
2023/07/21 00:53:24;;;;;;;2.40;2.20;;;22.80;35.60;;;;;;20591;6816;281493;-74
2023/07/21 00:55:51;;;;;;;2.90;2.50;;;23.10;35.10;;;;;;20592;6817;276963;-74
2023/07/21 00:58:17;;;;;;;4.80;1.90;;;23.10;35.00;;;;;;20777;6817;120980;-74
2023/07/21 01:00:43;;;;;;;3.97;1.77;;;22.90;35.30;;;;;;20800;6817;117218;-74
2023/07/21 01:03:08;;;;;;;2.25;2.08;;;22.50;35.80;;;;;;20592;6817;280914;-74
2023/07/21 01:05:34;;;;;;;2.85;2.33;;;22.50;36.50;;;;;;20581;6817;335906;-74
2023/07/21 01:07:59;;;;;;;2.20;2.10;;;22.70;36.80;;;;;;20801;6817;117801;-74
2023/07/21 01:10:25;;;;;;;2.10;2.00;;;22.50;36.80;;;;;;20777;6817;117106;-74
2023/07/21 01:12:50;;;;;;;2.33;1.73;;;22.10;37.00;;;;;;20810;6817;117925;-74
2023/07/21 01:15:17;;;;;;;2.07;1.97;;;21.90;37.40;;;;;;20792;6817;117648;-74
2023/07/21 01:17:41;;;;;;;2.00;1.90;;;21.70;37.50;;;;;;20801;6817;117801;-74
2023/07/21 01:20:09;;;;;;;2.43;2.23;;;21.40;38.50;;;;;;20769;6817;117274;-74
2023/07/21 01:23:03;;;;;;;2.50;2.30;;;21.40;37.80;;;;;;20540;6817;328348;-74
2023/07/21 01:25:28;;;;;;;2.50;2.20;;;21.70;37.50;;;;;;20543;6817;280493;-74
2023/07/21 01:27:54;;;;;;;2.83;2.30;;;22.10;36.90;;;;;;20571;6817;277836;-75
2023/07/21 01:30:19;;;;;;;2.97;2.33;;;22.40;36.40;;;;;;20772;6815;118209;-75
2023/07/21 01:32:45;;;;;;;2.87;2.60;;;22.20;36.50;;;;;;20598;6816;276264;-77
2023/07/21 01:35:11;;;;;;;2.30;2.20;;;22.20;37.10;;;;;;20580;6816;326652;-75
2023/07/21 01:37:40;;;;;;;2.30;2.20;;;22.30;37.80;;;;;;20796;6816;117271;-74
2023/07/21 01:40:08;;;;;;;2.07;1.97;;;22.10;37.80;;;;;;20794;6816;117521;-74
2023/07/21 01:42:34;;;;;;;2.10;2.00;;;21.70;38.10;;;;;;20561;6816;306095;-74
2023/07/21 01:45:03;;;;;;;3.07;2.13;;;21.70;38.30;;;;;;20798;6816;117034;-74
2023/07/21 01:47:26;;;;;;;1.80;1.70;;;21.50;38.30;;;;;;20790;6816;117204;-75
2023/07/21 01:49:51;;;;;;;2.20;2.00;;;21.20;38.60;;;;;;20587;6816;276958;-75
2023/07/21 01:52:16;;;;;;;4.78;1.90;;;21.20;38.70;;;;;;20779;6816;117346;-74
2023/07/21 01:54:45;;;;;;;4.15;2.37;;;21.10;38.80;;;;;;20583;6816;291109;-75
2023/07/21 01:57:10;;;;;;;2.72;2.50;;;21.20;39.90;;;;;;20579;6816;306471;-75
2023/07/21 01:59:36;;;;;;;2.60;2.40;;;21.40;40.20;;;;;;20790;6816;117025;-74
2023/07/21 02:02:01;;;;;;;2.47;2.30;;;21.20;40.00;;;;;;20588;6816;277480;-75
2023/07/21 02:04:27;;;;;;;2.10;2.00;;;21.20;40.90;;;;;;20779;6816;119617;-75
2023/07/21 02:06:53;;;;;;;1.87;1.83;;;20.80;41.10;;;;;;20800;6817;117871;-74
2023/07/21 02:09:19;;;;;;;2.53;2.33;;;20.80;41.10;;;;;;20582;6817;335480;-74
2023/07/21 02:11:44;;;;;;;2.63;2.40;;;20.90;41.50;;;;;;20576;6817;311426;-74
2023/07/21 02:14:10;;;;;;;2.37;2.20;;;21.20;41.00;;;;;;20793;6817;117509;-74
2023/07/21 02:16:47;;;;;;;2.77;2.17;;;21.00;40.80;;;;;;20783;6817;117136;-75
2023/07/21 02:19:12;;;;;;;2.50;2.30;;;20.70;41.00;;;;;;20590;6817;280041;-74
2023/07/21 02:21:38;;;;;;;2.57;2.37;;;20.90;41.20;;;;;;20800;6817;116987;-74
2023/07/21 02:24:04;;;;;;;2.72;2.50;;;20.80;41.00;;;;;;20811;6817;119095;-74
2023/07/21 02:26:29;;;;;;;2.97;2.40;;;20.60;41.10;;;;;;20573;6817;277460;-74
2023/07/21 02:28:55;;;;;;;2.30;2.20;;;20.80;41.00;;;;;;20805;6817;117759;-74
2023/07/21 02:31:21;;;;;;;4.37;2.60;;;20.70;41.60;;;;;;20800;6817;117024;-74
2023/07/21 02:33:48;;;;;;;4.27;2.57;;;20.60;41.10;;;;;;20593;6817;306587;-74
2023/07/21 02:36:13;;;;;;;2.70;2.50;;;20.80;41.00;;;;;;20560;6817;328738;-74
2023/07/21 02:38:40;;;;;;;2.10;2.00;;;21.10;40.60;;;;;;20803;6817;121054;-74
2023/07/21 02:41:05;;;;;;;2.87;2.23;;;21.00;40.50;;;;;;20797;6815;116942;-74
2023/07/21 02:43:32;;;;;;;2.40;2.30;;;20.80;40.70;;;;;;20796;6816;117628;-74
2023/07/21 02:45:56;;;;;;;2.90;2.50;;;20.60;41.00;;;;;;20588;6816;306100;-74
2023/07/21 02:48:22;;;;;;;2.60;2.40;;;20.90;41.30;;;;;;20792;6816;119437;-74
2023/07/21 02:50:49;;;;;;;2.60;2.50;;;20.80;41.00;;;;;;20594;6816;299291;-74
2023/07/21 02:53:14;;;;;;;2.90;2.57;;;21.00;40.90;;;;;;20592;6816;305976;-74
2023/07/21 02:55:40;;;;;;;2.30;2.20;;;21.30;40.40;;;;;;20800;6816;117361;-74
2023/07/21 02:58:06;;;;;;;2.95;2.50;;;21.20;40.40;;;;;;20585;6816;276582;-74
2023/07/21 03:00:31;;;;;;;3.73;2.50;;;21.20;40.50;;;;;;20570;6816;335909;-74
2023/07/21 03:02:57;;;;;;;3.25;2.58;;;21.40;40.10;;;;;;20581;6816;307428;-74
2023/07/21 03:05:22;;;;;;;3.00;2.47;;;21.70;39.80;;;;;;20797;6816;117555;-74
2023/07/21 03:07:48;;;;;;;4.70;2.67;;;21.40;39.90;;;;;;20580;6816;307325;-74
2023/07/21 03:10:15;;;;;;;3.33;2.65;;;21.40;40.30;;;;;;20576;6816;335733;-75
2023/07/21 03:12:41;;;;;;;3.90;2.73;;;21.50;40.00;;;;;;20587;6816;306491;-77
2023/07/21 03:15:08;;;;;;;4.93;2.33;;;21.70;40.00;;;;;;20810;6816;117752;-76
2023/07/21 03:17:32;;;;;;;2.72;2.50;;;21.40;40.10;;;;;;20591;6816;310251;-74
2023/07/21 03:19:59;;;;;;;2.67;2.47;;;21.30;40.30;;;;;;20595;6817;277658;-74
2023/07/21 03:22:24;;;;;;;2.58;2.37;;;21.40;40.10;;;;;;20782;6817;121033;-74
2023/07/21 03:24:49;;;;;;;3.13;2.50;;;21.20;40.60;;;;;;20585;6817;277384;-74
2023/07/21 03:27:15;;;;;;;2.83;2.53;;;21.20;40.60;;;;;;20588;6817;311728;-74
2023/07/21 03:29:42;;;;;;;2.87;2.70;;;21.20;40.40;;;;;;20807;6817;117643;-72
2023/07/21 03:32:07;;;;;;;2.43;2.23;;;21.10;40.30;;;;;;20801;6817;119080;-74
2023/07/21 03:34:37;;;;;;;2.90;2.50;;;20.40;41.10;;;;;;20787;6817;117911;-73
2023/07/21 03:37:04;;;;;;;4.53;2.30;;;20.40;41.10;;;;;;20810;6817;121112;-73
2023/07/21 03:39:29;;;;;;;3.90;2.43;;;20.20;41.50;;;;;;20801;6817;119387;-72
2023/07/21 03:41:55;;;;;;;2.65;2.45;;;19.90;42.20;;;;;;20814;6817;117267;-72
2023/07/21 03:44:21;;;;;;;2.67;2.47;;;19.80;42.10;;;;;;20780;6817;124549;-73
2023/07/21 03:46:46;;;;;;;2.60;2.40;;;19.80;42.40;;;;;;20796;6817;117273;-74
2023/07/21 03:49:12;;;;;;;2.60;2.40;;;19.70;42.50;;;;;;20808;6817;120330;-73
2023/07/21 03:51:39;;;;;;;2.97;2.75;;;19.60;42.70;;;;;;20580;6815;279048;-75
2023/07/21 03:54:04;;;;;;;2.93;2.73;;;20.40;42.30;;;;;;20588;6816;306346;-76
2023/07/21 03:56:30;;;;;;;2.93;2.73;;;20.40;42.30;;;;;;20768;6816;117661;-75
2023/07/21 03:58:58;;;;;;;2.83;2.62;;;20.40;42.10;;;;;;20596;6816;281628;-76
2023/07/21 04:01:22;;;;;;;2.80;2.60;;;20.50;41.90;;;;;;20589;6816;310161;-73
2023/07/21 04:03:47;;;;;;;2.90;2.60;;;20.70;41.50;;;;;;20810;6816;119516;-72
2023/07/21 04:06:16;;;;;;;2.17;2.07;;;20.20;42.00;;;;;;20809;6816;123086;-71
2023/07/21 04:08:40;;;;;;;4.82;2.80;;;20.40;42.40;;;;;;20382;6816;320973;-71
2023/07/21 04:11:05;;;;;;;2.60;2.40;;;20.30;42.20;;;;;;20790;6816;117244;-71
2023/07/21 04:13:32;;;;;;;3.03;2.50;;;20.30;42.10;;;;;;20806;6816;117586;-71
2023/07/21 04:15:56;;;;;;;4.87;3.05;;;20.10;42.30;;;;;;20586;6816;291588;-70
2023/07/21 04:18:24;;;;;;;6.80;2.70;;;20.20;42.60;;;;;;20788;6816;119647;-71
2023/07/21 04:20:48;;;;;;;2.50;2.40;;;20.00;42.60;;;;;;20807;6816;117556;-70
2023/07/21 04:23:14;;;;;;;2.43;2.27;;;20.00;42.60;;;;;;20813;6816;119506;-70
2023/07/21 04:25:40;;;;;;;2.78;2.25;;;19.80;42.90;;;;;;20815;6816;120916;-72
2023/07/21 04:28:06;;;;;;;2.90;2.70;;;19.70;43.30;;;;;;20598;6816;278359;-71
2023/07/21 04:30:32;;;;;;;3.30;2.83;;;19.90;43.50;;;;;;20569;6817;306913;-71
2023/07/21 04:32:58;;;;;;;3.73;2.50;;;20.30;42.70;;;;;;20809;6817;119365;-71
2023/07/21 04:35:23;;;;;;;3.00;2.80;;;20.30;42.80;;;;;;20590;6817;336327;-70
2023/07/21 04:37:49;;;;;;;3.30;2.70;;;20.40;42.90;;;;;;20579;6817;312085;-72
2023/07/21 04:40:15;;;;;;;3.57;2.67;;;20.70;42.50;;;;;;20777;6817;117445;-73
2023/07/21 04:42:40;;;;;;;4.40;2.83;;;20.60;42.60;;;;;;20583;6817;288725;-72
2023/07/21 04:45:11;;;;;;;4.60;2.70;;;20.60;42.70;;;;;;20802;6817;117235;-73
2023/07/21 04:47:32;;;;;;;2.60;2.47;;;20.60;42.70;;;;;;20573;6817;276653;-73
2023/07/21 04:49:58;;;;;;;2.80;2.60;;;20.60;42.70;;;;;;20801;6816;114468;-72
2023/07/21 04:52:23;;;;;;;3.25;2.95;;;20.60;42.60;;;;;;20584;6817;306893;-73
2023/07/21 04:54:49;;;;;;;3.27;3.07;;;20.70;42.40;;;;;;20586;6817;277823;-72
2023/07/21 04:57:15;;;;;;;3.77;3.00;;;21.00;42.20;;;;;;20594;6817;305341;-73
2023/07/21 04:59:42;;;;;;;3.17;2.97;;;21.20;41.80;;;;;;20587;6817;299646;-71
2023/07/21 05:02:07;;;;;;;4.80;2.60;;;21.40;41.50;;;;;;20802;6817;117575;-74
2023/07/21 05:04:33;;;;;;;3.30;3.10;;;21.30;41.70;;;;;;20577;6815;403082;-71
2023/07/21 05:07:01;;;;;;;3.00;2.70;;;21.30;42.00;;;;;;20800;6816;118049;-76
2023/07/21 05:09:26;;;;;;;3.70;3.40;;;21.30;42.00;;;;;;20798;6816;119787;-75
2023/07/21 05:11:51;;;;;;;3.10;2.75;;;21.10;42.20;;;;;;20589;6816;335398;-74
2023/07/21 05:14:18;;;;;;;3.20;2.90;;;21.30;42.40;;;;;;20566;6816;306873;-74
2023/07/21 05:16:42;;;;;;;4.07;3.10;;;21.60;41.60;;;;;;20750;6816;122799;-73
2023/07/21 05:19:08;;;;;;;2.80;2.60;;;21.50;41.50;;;;;;20758;6816;120312;-74
2023/07/21 05:21:34;;;;;;;2.80;2.50;;;21.20;41.60;;;;;;20801;6816;119490;-75
2023/07/21 05:23:59;;;;;;;2.93;2.53;;;21.00;41.90;;;;;;20770;6816;117232;-75
2023/07/21 05:26:27;;;;;;;4.97;2.80;;;21.00;42.10;;;;;;20542;6816;311282;-74
2023/07/21 05:28:54;;;;;;;3.10;2.87;;;21.00;42.10;;;;;;20800;6816;117132;-74
2023/07/21 05:31:17;;;;;;;2.23;2.13;;;21.00;41.90;;;;;;20812;6816;117801;-73
2023/07/21 05:33:42;;;;;;;2.87;2.70;;;20.90;42.20;;;;;;20600;6816;309462;-73
2023/07/21 05:36:09;;;;;;;3.10;2.80;;;21.10;42.10;;;;;;20601;6816;281975;-76
2023/07/21 05:38:34;;;;;;;3.25;2.75;;;21.60;41.40;;;;;;20556;6816;292012;-76
2023/07/21 05:40:59;;;;;;;3.20;2.83;;;22.00;40.70;;;;;;20574;6816;284226;-74
2023/07/21 05:43:24;;;;;;;2.40;2.30;;;22.30;40.00;;;;;;20794;6817;116954;-76
2023/07/21 05:45:51;;;;;;;3.00;2.80;;;22.40;40.20;;;;;;20596;6817;276941;-76
2023/07/21 05:48:17;;;;;;;3.33;2.70;;;22.30;40.10;;;;;;20788;6817;119278;-78
2023/07/21 05:50:43;;;;;;;3.47;3.17;;;22.30;40.30;;;;;;20577;6817;277120;-77
2023/07/21 05:53:09;;;;;;;3.85;3.20;;;22.50;40.30;;;;;;20601;6817;307536;-74
2023/07/21 05:55:34;;;;;;;2.63;2.43;;;22.90;40.10;;;;;;20786;6817;117080;-75
2023/07/21 05:58:00;;;;;;;3.00;2.73;;;22.90;40.20;;;;;;20594;6817;277059;-74
2023/07/21 06:00:25;;;;;;;3.47;2.60;;;23.10;40.20;;;;;;20786;6817;120306;-74
2023/07/21 06:02:52;;;;;;;2.87;2.67;;;23.30;40.00;;;;;;20581;6817;311677;-75
2023/07/21 06:05:17;;;;;;;2.60;2.40;;;23.30;40.00;;;;;;20799;6817;117059;-75
2023/07/21 06:07:44;;;;;;;4.13;3.10;;;23.30;40.10;;;;;;20598;6817;288493;-75
2023/07/21 06:10:08;;;;;;;2.83;2.60;;;23.50;39.60;;;;;;20792;6817;117020;-74
2023/07/21 06:12:34;;;;;;;3.80;2.80;;;23.50;39.50;;;;;;20785;6817;120076;-76
2023/07/21 06:15:00;;;;;;;3.50;2.90;;;23.40;39.70;;;;;;20584;6815;310819;-78
2023/07/21 06:17:26;;;;;;;3.20;2.90;;;23.60;39.20;;;;;;20591;6816;340489;-74
2023/07/21 06:19:51;;;;;;;3.97;3.20;;;24.00;38.50;;;;;;20802;6816;117153;-78
2023/07/21 06:22:16;;;;;;;5.50;2.60;;;24.00;38.70;;;;;;20782;6816;120423;-74
2023/07/21 06:24:43;;;;;;;3.55;3.15;;;23.90;39.00;;;;;;20590;6816;307078;-75
2023/07/21 06:27:10;;;;;;;2.80;2.60;;;24.00;38.40;;;;;;20804;6816;117892;-76
2023/07/21 06:29:34;;;;;;;4.10;2.80;;;24.10;38.40;;;;;;20584;6816;306532;-72
2023/07/21 06:32:00;;;;;;;4.05;3.17;;;24.30;37.80;;;;;;20599;6816;277936;-78
2023/07/21 06:34:26;;;;;;;3.35;2.87;;;24.70;37.40;;;;;;20576;6816;281558;-78
2023/07/21 06:36:51;;;;;;;2.93;2.73;;;25.00;37.00;;;;;;20811;6816;117186;-77
2023/07/21 06:39:17;;;;;;;5.28;3.10;;;24.90;37.30;;;;;;20592;6816;309014;-73
2023/07/21 06:41:44;;;;;;;4.10;3.53;;;25.40;36.50;;;;;;20598;6816;308755;-72
2023/07/21 06:44:09;;;;;;;4.17;2.93;;;25.30;36.50;;;;;;20810;6816;117096;-74
2023/07/21 06:46:35;;;;;;;5.20;3.10;;;25.10;37.40;;;;;;20793;6816;123389;-77
2023/07/21 06:49:00;;;;;;;4.28;3.03;;;25.10;37.40;;;;;;20583;6816;335809;-74
2023/07/21 06:51:27;;;;;;;5.17;3.10;;;25.40;36.70;;;;;;20803;6816;121219;-74
2023/07/21 06:53:53;;;;;;;4.03;3.00;;;25.60;36.60;;;;;;20589;6817;293101;-75
2023/07/21 06:56:18;;;;;;;3.77;2.87;;;25.80;35.30;;;;;;20770;6817;118659;-75
2023/07/21 06:58:44;;;;;;;3.22;2.53;;;25.80;35.60;;;;;;20805;6817;117442;-74
2023/07/21 07:01:09;;;;;;;2.65;2.50;;;25.50;36.10;;;;;;20798;6817;117601;-76
2023/07/21 07:03:37;;;;;;;2.47;2.37;;;25.30;36.50;;;;;;20804;6817;117220;-73
2023/07/21 07:06:02;;;;;;;2.97;2.77;;;25.20;36.80;;;;;;20591;6817;307244;-74
2023/07/21 07:08:29;;;;;;;2.70;2.50;;;25.60;36.40;;;;;;20780;6817;120167;-74
2023/07/21 07:10:55;;;;;;;3.37;3.07;;;25.90;35.00;;;;;;20575;6817;309808;-74
2023/07/21 07:13:21;;;;;;;3.33;3.00;;;25.90;35.30;;;;;;20518;6817;306143;-76
2023/07/21 07:15:51;;;;;;;3.00;2.80;;;26.50;35.20;;;;;;20548;6817;336388;-76
2023/07/21 07:18:16;;;;;;;2.90;2.60;;;26.50;35.10;;;;;;20739;6817;117448;-75
2023/07/21 07:20:49;;;;;;;2.87;2.67;;;26.40;35.20;;;;;;20569;6817;280552;-76
2023/07/21 07:23:14;;;;;;;3.13;2.83;;;26.40;35.00;;;;;;20572;6817;280762;-77
2023/07/21 07:25:41;;;;;;;2.70;2.50;;;26.30;34.90;;;;;;20794;6817;117024;-76
2023/07/21 07:28:06;;;;;;;3.07;2.47;;;26.30;34.90;;;;;;20804;6815;117437;-76
2023/07/21 07:30:35;;;;;;;2.60;2.40;;;25.90;35.50;;;;;;20793;6816;120437;-77
2023/07/21 07:33:00;;;;;;;3.10;2.87;;;25.60;36.30;;;;;;20807;6816;120429;-77
2023/07/21 07:35:26;;;;;;;2.95;2.62;;;25.60;36.50;;;;;;20804;6816;124645;-77
2023/07/21 07:37:52;;;;;;;2.75;2.55;;;25.60;36.30;;;;;;20599;6816;277000;-77
2023/07/21 07:40:19;;;;;;;2.63;2.53;;;25.90;35.20;;;;;;20788;6816;119970;-78
2023/07/21 07:42:44;;;;;;;2.73;2.40;;;26.00;35.10;;;;;;20596;6816;306552;-76
2023/07/21 07:45:11;;;;;;;3.53;2.47;;;26.30;34.40;;;;;;20806;6816;117268;-77
2023/07/21 07:47:37;;;;;;;2.80;2.60;;;26.30;34.40;;;;;;20587;6816;306922;-76
2023/07/21 07:50:03;;;;;;;2.78;2.58;;;26.60;34.10;;;;;;20500;6816;282338;-75
2023/07/21 07:52:28;;;;;;;2.70;2.50;;;26.80;33.30;;;;;;20593;6816;302763;-76
2023/07/21 07:54:54;;;;;;;3.90;2.30;;;26.90;33.30;;;;;;20800;6816;119400;-76
2023/07/21 07:57:20;;;;;;;4.07;2.60;;;26.70;33.70;;;;;;20582;6816;307220;-77
2023/07/21 07:59:45;;;;;;;3.90;2.40;;;26.70;33.80;;;;;;20806;6816;117235;-76
2023/07/21 08:02:10;;;;;;;2.70;2.50;;;26.60;34.20;;;;;;20585;6816;306187;-75
2023/07/21 08:04:37;;;;;;;2.67;2.47;;;26.80;33.90;;;;;;20778;6817;117574;-75
2023/07/21 08:07:03;;;;;;;2.60;2.40;;;26.90;34.10;;;;;;20798;6817;117025;-75
2023/07/21 08:09:28;;;;;;;2.47;2.37;;;26.90;34.50;;;;;;20797;6817;117268;-75
2023/07/21 08:11:55;;;;;;;2.50;2.30;;;27.00;34.10;;;;;;20584;6817;277227;-77
2023/07/21 08:14:21;;;;;;;3.73;2.40;;;28.00;33.70;;;;;;20531;6817;277575;-74
2023/07/21 08:16:47;;;;;;;2.40;2.20;;;28.00;32.70;;;;;;20539;6817;282497;-74
2023/07/21 08:19:14;;;;;;;2.47;2.37;;;28.60;31.40;;;;;;20763;6817;117530;-74
2023/07/21 08:21:39;;;;;;;4.20;2.30;;;28.70;31.10;;;;;;20783;6817;117029;-74
2023/07/21 08:24:05;;;;;;;2.58;2.35;;;28.40;31.30;;;;;;20550;6817;336544;-74
2023/07/21 08:26:33;;;;;;;4.97;2.33;;;28.40;31.10;;;;;;20768;6817;118939;-77
2023/07/21 08:28:58;;;;;;;3.43;2.27;;;28.40;31.10;;;;;;20567;6817;306661;-73
2023/07/21 08:31:24;;;;;;;2.30;2.10;;;28.70;31.20;;;;;;20771;6817;124240;-75
2023/07/21 08:33:50;;;;;;;3.20;2.00;;;28.80;30.80;;;;;;20560;6827;277656;-77
2023/07/21 08:36:15;;;;;;;3.70;2.20;;;29.10;30.00;;;;;;20535;6827;277557;-75
2023/07/21 08:38:41;;;;;;;2.20;2.10;;;29.50;30.00;;;;;;20818;6810;117347;-76
2023/07/21 08:41:06;;;;;;;2.23;2.03;;;29.60;30.10;;;;;;20586;6811;276996;-77
2023/07/21 08:43:32;;;;;;;2.10;2.00;;;29.90;29.80;;;;;;20620;6811;309162;-78
2023/07/21 08:45:58;;;;;;;2.00;1.90;;;30.40;29.60;;;;;;20849;6811;117382;-78
2023/07/21 08:48:23;;;;;;;2.30;2.10;;;30.60;29.40;;;;;;20839;6811;118961;-78
2023/07/21 08:50:51;;;;;;;3.00;2.08;;;30.50;29.30;;;;;;20631;6811;306817;-77
2023/07/21 08:53:17;;;;;;;1.73;1.63;;;30.70;28.80;;;;;;20807;6811;117715;-76
2023/07/21 08:55:42;;;;;;;1.83;1.73;;;30.80;28.90;;;;;;20836;6811;116356;-76
2023/07/21 08:58:08;;;;;;;2.00;1.90;;;30.60;29.00;;;;;;20826;6812;119106;-76
2023/07/21 09:00:33;;;;;;;3.47;1.97;;;30.30;28.80;;;;;;20556;6812;279429;-76
2023/07/21 09:03:03;;;;;;;2.30;2.20;;;30.50;28.50;;;;;;20567;6812;309544;-77
2023/07/21 09:05:30;;;;;;;2.50;1.83;;;31.40;28.10;;;;;;20552;6812;279350;-76
2023/07/21 09:07:55;;;;;;;2.10;2.00;;;31.30;27.60;;;;;;20571;6812;296839;-79
2023/07/21 09:10:34;;;;;;;2.30;2.10;;;31.80;26.60;;;;;;20556;6812;336246;-77
2023/07/21 09:12:56;;;;;;;2.13;1.93;;;32.00;26.60;;;;;;20773;6812;123429;-77
2023/07/21 09:15:22;;;;;;;2.17;2.00;;;32.00;26.90;;;;;;20819;6812;117491;-76
2023/07/21 09:17:48;;;;;;;2.20;2.10;;;31.80;26.60;;;;;;20593;6812;277148;-76
2023/07/21 09:20:15;;;;;;;2.08;1.95;;;31.80;26.60;;;;;;20573;6812;306878;-77
2023/07/21 09:22:40;;;;;;;2.60;2.25;;;32.10;26.50;;;;;;20590;6812;283252;-76
2023/07/21 09:25:06;;;;;;;2.20;2.00;;;32.40;26.10;;;;;;20585;6812;295663;-77
2023/07/21 09:27:33;;;;;;;2.10;1.90;;;32.70;25.60;;;;;;20789;6812;120158;-77
2023/07/21 09:30:00;;;;;;;2.27;2.00;;;32.40;25.70;;;;;;20803;6812;122667;-76
2023/07/21 09:32:26;;;;;;;1.73;1.63;;;32.00;26.70;;;;;;20779;6812;117409;-76
2023/07/21 09:34:58;;;;;;;3.12;2.08;;;31.90;26.70;;;;;;20596;6812;306564;-76
2023/07/21 09:37:26;;;;;;;2.63;2.20;;;32.20;26.30;;;;;;20590;6812;309646;-77
2023/07/21 09:39:56;;;;;;;2.40;2.20;;;32.60;26.00;;;;;;20599;6812;311021;-77
2023/07/21 09:42:23;;;;;;;3.80;1.80;;;33.00;25.50;;;;;;20793;6812;117931;-77
2023/07/21 09:44:51;;;;;;;2.30;2.03;;;33.00;26.30;;;;;;20595;6812;335499;-77
2023/07/21 09:47:16;;;;;;;1.87;1.77;;;33.10;25.10;;;;;;20821;6812;117296;-76
2023/07/21 09:49:48;;;;;;;4.15;1.90;;;33.00;26.00;;;;;;20828;6810;117695;-76
2023/07/21 09:52:17;;;;;;;2.30;2.17;;;32.90;25.40;;;;;;20605;6811;297271;-77
2023/07/21 09:54:40;;;;;;;2.10;1.90;;;33.00;24.90;;;;;;20764;6811;121770;-79
2023/07/21 09:57:05;;;;;;;2.20;2.10;;;32.90;25.00;;;;;;20558;6811;306850;-76
2023/07/21 09:59:31;;;;;;;4.80;2.00;;;33.00;24.90;;;;;;20751;6811;122841;-76
2023/07/21 10:01:57;;;;;;;2.92;2.08;;;32.90;24.60;;;;;;20539;6811;277005;-76
2023/07/21 10:04:23;;;;;;;3.43;1.80;;;32.90;24.60;;;;;;20727;6811;118857;-76
2023/07/21 10:06:50;;;;;;;1.90;1.80;;;32.80;24.70;;;;;;20506;6811;306892;-76
2023/07/21 10:09:16;;;;;;;2.00;1.90;;;32.80;24.90;;;;;;20556;6811;308340;-77
2023/07/21 10:11:45;;;;;;;2.07;1.70;;;33.10;24.90;;;;;;20551;6812;277033;-76
2023/07/21 10:14:33;;;;;;;3.47;1.80;;;33.40;24.80;;;;;;20774;6812;117650;-79
2023/07/21 10:16:57;;;;;;;1.80;1.70;;;33.40;25.00;;;;;;20726;6812;117179;-76
2023/07/21 10:19:22;;;;;;;5.53;2.20;;;33.20;25.20;;;;;;20557;6812;305676;-75
2023/07/21 10:21:51;;;;;;;4.80;1.80;;;33.20;25.00;;;;;;20805;6812;121078;-75
2023/07/21 10:24:27;;;;;;;1.98;1.87;;;33.00;25.10;;;;;;20591;6812;277262;-77
2023/07/21 10:26:59;;;;;;;2.30;2.10;;;33.10;24.90;;;;;;20600;6812;335957;-78
2023/07/21 10:29:25;;;;;;;2.43;2.30;;;33.50;25.10;;;;;;20772;6812;119556;-76
2023/07/21 10:31:52;;;;;;;2.10;1.90;;;33.50;25.00;;;;;;20817;6812;121216;-78
2023/07/21 10:34:20;;;;;;;2.33;2.10;;;33.30;25.70;;;;;;20578;6812;281077;-76
2023/07/21 10:36:52;;;;;;;2.20;1.93;;;33.40;25.40;;;;;;20588;6812;302529;-78
2023/07/21 10:39:24;;;;;;;6.27;2.07;;;33.60;24.80;;;;;;20800;6812;119540;-76
2023/07/21 10:41:50;;;;;;;7.33;2.10;;;33.40;24.90;;;;;;20804;6812;125097;-78
2023/07/21 10:44:15;;;;;;;3.33;2.62;;;33.00;24.90;;;;;;20584;6812;275991;-76
2023/07/21 10:46:42;;;;;;;2.40;2.20;;;32.90;24.80;;;;;;20604;6812;278742;-76
2023/07/21 10:49:12;;;;;;;2.47;2.28;;;33.00;24.90;;;;;;20622;6812;335536;-77
2023/07/21 10:51:37;;;;;;;2.00;1.80;;;32.90;24.50;;;;;;20832;6812;121116;-78
2023/07/21 10:54:02;;;;;;;3.40;2.12;;;32.60;25.00;;;;;;20615;6812;298552;-77
2023/07/21 10:56:28;;;;;;;3.08;1.80;;;32.50;25.20;;;;;;20810;6812;118701;-78
2023/07/21 10:58:54;;;;;;;2.65;2.40;;;32.30;25.50;;;;;;20608;6812;298606;-75
2023/07/21 11:01:21;;;;;;;3.25;2.17;;;32.20;25.40;;;;;;20829;6810;117385;-78
2023/07/21 11:03:48;;;;;;;3.27;2.10;;;32.10;25.60;;;;;;20607;6811;306600;-80
2023/07/21 11:06:13;;;;;;;2.27;2.10;;;32.20;25.30;;;;;;20831;6811;117673;-80
2023/07/21 11:08:40;;;;;;;4.03;1.90;;;32.10;25.50;;;;;;20680;6811;121348;-80
2023/07/21 11:11:07;;;;;;;4.45;2.30;;;31.70;25.80;;;;;;20491;6811;327407;-80
2023/07/21 11:13:31;;;;;;;5.80;2.37;;;31.70;25.80;;;;;;20793;6811;118132;-78
2023/07/21 11:16:03;;;;;;;3.53;2.10;;;31.60;25.90;;;;;;20812;6811;123887;-79
2023/07/21 11:18:28;;;;;;;3.30;2.20;;;31.40;26.00;;;;;;20451;6811;340145;-77
2023/07/21 11:20:54;;;;;;;2.25;2.10;;;31.50;25.50;;;;;;20599;6811;305529;-78
2023/07/21 11:23:23;;;;;;;1.83;1.73;;;31.70;25.90;;;;;;20816;6812;117361;-77
2023/07/21 11:25:58;;;;;;;2.80;2.08;;;31.70;25.70;;;;;;20601;6812;306541;-77
2023/07/21 11:28:24;;;;;;;2.30;2.10;;;31.70;25.70;;;;;;20793;6812;121260;-77
2023/07/21 11:30:50;;;;;;;2.60;2.08;;;31.50;25.70;;;;;;20609;6812;337933;-80
2023/07/21 11:33:15;;;;;;;2.70;2.00;;;31.40;25.80;;;;;;20821;6812;117275;-77
2023/07/21 11:35:57;;;;;;;4.40;1.97;;;31.10;25.90;;;;;;20817;6812;120495;-77
2023/07/21 11:38:14;;;;;;;3.40;2.10;;;30.80;25.90;;;;;;20532;6812;277331;-77
2023/07/21 11:40:39;;;;;;;2.60;2.07;;;30.70;26.20;;;;;;20581;6812;306927;-78
2023/07/21 11:43:06;;;;;;;2.17;2.00;;;31.00;26.80;;;;;;20821;6812;116936;-76
2023/07/21 11:45:34;;;;;;;2.43;2.10;;;31.00;26.30;;;;;;20588;6812;307179;-79
2023/07/21 11:48:17;;;;;;;2.00;1.90;;;31.10;26.50;;;;;;20554;6812;335904;-77
2023/07/21 11:50:42;;;;;;;3.90;2.10;;;31.30;26.10;;;;;;20649;6812;305296;-78
2023/07/21 11:53:10;;;;;;;3.40;2.20;;;31.40;25.70;;;;;;20752;6812;117427;-78
2023/07/21 11:55:35;;;;;;;2.17;2.07;;;31.20;25.80;;;;;;20611;6812;277387;-80
2023/07/21 11:58:00;;;;;;;3.47;2.20;;;31.00;26.10;;;;;;20579;6812;277347;-79
2023/07/21 12:00:28;;;;;;;2.77;2.00;;;31.10;26.10;;;;;;20793;6812;117529;-79
2023/07/21 12:02:53;;;;;;;2.60;2.33;;;30.80;26.40;;;;;;20610;6812;277071;-77
2023/07/21 12:05:19;;;;;;;2.50;2.20;;;30.80;26.50;;;;;;20587;6812;328717;-77
2023/07/21 12:07:46;;;;;;;3.07;2.10;;;30.70;26.40;;;;;;20612;6812;288779;-77
2023/07/21 12:10:10;;;;;;;2.15;1.95;;;30.80;26.50;;;;;;20609;6812;306146;-80
2023/07/21 12:12:37;;;;;;;2.40;2.10;;;30.80;26.30;;;;;;20596;6810;313025;-76
2023/07/21 12:15:01;;;;;;;3.20;2.00;;;30.80;26.10;;;;;;20833;6811;117663;-77
2023/07/21 12:17:28;;;;;;;2.27;2.10;;;30.60;26.40;;;;;;20834;6811;119099;-77
2023/07/21 12:19:54;;;;;;;2.17;2.08;;;30.20;26.70;;;;;;20645;6811;276573;-76
2023/07/21 12:22:18;;;;;;;2.00;1.80;;;30.20;27.10;;;;;;20807;6811;143579;-78
2023/07/21 12:24:43;;;;;;;2.40;2.05;;;30.00;26.90;;;;;;20609;6811;280318;-76
2023/07/21 12:27:09;;;;;;;2.50;2.00;;;30.00;26.90;;;;;;20605;6811;276971;-77
2023/07/21 12:29:35;;;;;;;4.33;2.27;;;30.10;26.90;;;;;;20821;6811;116994;-77
2023/07/21 12:32:01;;;;;;;2.10;1.90;;;29.90;27.00;;;;;;20775;6811;117761;-77